createdAt,value
2023-01-27T00:01:06.668Z,20.48
2023-01-27T00:03:36.248Z,19.77
2023-01-27T00:06:04.730Z,19.08
2023-01-27T00:08:32.917Z,19.60
2023-01-27T00:11:20.298Z,18.83
2023-01-27T00:13:48.302Z,17.83
2023-01-27T00:16:16.357Z,15.70
2023-01-27T00:18:45.887Z,16.17
2023-01-27T00:24:28.142Z,15.98
2023-01-27T00:26:56.197Z,18.27
2023-01-27T00:29:24.239Z,17.33
2023-01-27T00:32:09.883Z,18.27
2023-01-27T00:34:41.413Z,21.00
2023-01-27T00:37:09.527Z,18.98
2023-01-27T00:39:37.622Z,19.30
2023-01-27T00:42:06.003Z,19.58
2023-01-27T00:44:34.090Z,19.30
2023-01-27T00:47:02.074Z,22.48
2023-01-27T00:49:30.082Z,19.95
2023-01-27T00:51:59.446Z,20.83
2023-01-27T00:54:27.486Z,23.75
2023-01-27T00:56:55.527Z,22.15
2023-01-27T00:59:23.673Z,23.00
2023-01-27T01:01:51.715Z,20.85
2023-01-27T01:04:19.742Z,22.23
2023-01-27T01:06:47.772Z,20.98
2023-01-27T01:09:17.134Z,22.38
2023-01-27T01:11:45.179Z,22.92
2023-01-27T01:14:13.229Z,21.63
2023-01-27T01:16:41.236Z,23.33
2023-01-27T01:19:09.308Z,21.02
2023-01-27T01:21:40.805Z,22.17
2023-01-27T01:24:09.191Z,22.45
2023-01-27T01:26:38.617Z,21.45
2023-01-27T01:29:06.703Z,22.45
2023-01-27T01:31:34.781Z,23.00
2023-01-27T01:34:02.795Z,20.45
2023-01-27T01:36:30.896Z,22.15
2023-01-27T01:38:59.064Z,21.75
2023-01-27T01:41:27.851Z,20.77
2023-01-27T01:43:57.220Z,16.38
2023-01-27T01:46:25.294Z,20.75
2023-01-27T01:48:55.937Z,20.98
2023-01-27T01:51:28.695Z,20.23
2023-01-27T01:54:01.271Z,20.88
2023-01-27T01:56:33.391Z,20.17
2023-01-27T01:59:06.947Z,20.25
2023-01-27T02:01:35.132Z,19.85
2023-01-27T02:04:07.224Z,20.98
2023-01-27T02:06:41.736Z,21.67
2023-01-27T02:09:11.988Z,21.17
2023-01-27T02:11:40.263Z,21.10
2023-01-27T02:14:10.077Z,20.25
2023-01-27T02:16:38.491Z,20.73
2023-01-27T02:19:08.814Z,20.35
2023-01-27T02:21:36.902Z,20.13
2023-01-27T02:24:10.836Z,20.63
2023-01-27T02:26:43.548Z,21.70
2023-01-27T02:29:13.617Z,20.25
2023-01-27T02:31:41.772Z,20.67
2023-01-27T02:34:13.151Z,20.38
2023-01-27T02:36:46.143Z,22.55
2023-01-27T02:39:17.513Z,20.55
2023-01-27T02:41:50.760Z,20.92
2023-01-27T02:44:18.793Z,21.42
2023-01-27T02:46:47.169Z,20.55
2023-01-27T02:49:15.305Z,19.55
2023-01-27T02:51:43.581Z,20.45
2023-01-27T02:54:11.610Z,19.85
2023-01-27T02:56:39.683Z,18.98
2023-01-27T02:59:09.167Z,20.60
2023-01-27T03:04:05.996Z,19.40
2023-01-27T03:06:34.007Z,19.75
2023-01-27T03:09:02.010Z,21.13
2023-01-27T03:11:47.660Z,20.00
2023-01-27T03:14:17.183Z,19.13
2023-01-27T03:19:30.450Z,17.58
2023-01-27T03:22:01.798Z,17.48
2023-01-27T03:24:29.857Z,19.85
2023-01-27T03:26:57.828Z,19.30
2023-01-27T03:29:44.639Z,17.90
2023-01-27T03:32:12.657Z,19.75
2023-01-27T03:34:40.687Z,18.77
2023-01-27T03:37:26.520Z,20.85
2023-01-27T03:40:12.177Z,20.63
2023-01-27T03:42:57.769Z,18.92
2023-01-27T03:45:44.548Z,20.25
2023-01-27T03:48:13.315Z,19.95
2023-01-27T03:50:43.124Z,19.35
2023-01-27T03:53:11.692Z,18.45
2023-01-27T03:55:40.320Z,17.90
2023-01-27T03:58:19.625Z,18.00
2023-01-27T04:03:36.854Z,15.57
2023-01-27T04:06:23.507Z,16.80
2023-01-27T04:08:51.533Z,15.75
2023-01-27T04:11:37.083Z,17.55
2023-01-27T04:14:06.261Z,18.50
2023-01-27T04:16:37.027Z,19.42
2023-01-27T04:19:06.376Z,16.83
2023-01-27T04:21:35.377Z,16.23
2023-01-27T04:24:03.777Z,18.02
2023-01-27T04:26:34.469Z,17.80
2023-01-27T04:29:03.637Z,17.85
2023-01-27T04:31:32.814Z,17.77
2023-01-27T04:34:02.454Z,19.35
2023-01-27T04:36:30.489Z,18.02
2023-01-27T04:38:58.579Z,17.35
2023-01-27T04:41:26.696Z,16.90
2023-01-27T04:43:54.748Z,17.33
2023-01-27T04:46:22.742Z,16.45
2023-01-27T04:48:50.770Z,15.80
2023-01-27T04:51:20.163Z,16.80
2023-01-27T04:53:48.211Z,16.55
2023-01-27T04:56:23.822Z,16.77
2023-01-27T04:58:52.385Z,16.95
2023-01-27T05:01:20.697Z,16.70
2023-01-27T05:03:48.721Z,16.23
2023-01-27T05:06:17.412Z,16.25
2023-01-27T05:08:46.793Z,15.93
2023-01-27T05:11:15.425Z,16.65
2023-01-27T05:13:43.418Z,16.02
2023-01-27T05:16:13.726Z,17.15
2023-01-27T05:18:43.250Z,17.02
2023-01-27T05:23:41.655Z,16.27
2023-01-27T05:26:13.379Z,17.23
2023-01-27T05:28:42.782Z,14.75
2023-01-27T05:33:41.386Z,14.38
2023-01-27T05:36:12.321Z,14.73
2023-01-27T05:38:41.020Z,15.98
2023-01-27T05:41:13.029Z,15.90
2023-01-27T05:43:43.095Z,16.95
2023-01-27T05:46:13.214Z,16.75
2023-01-27T05:48:43.160Z,15.68
2023-01-27T05:51:14.533Z,16.52
2023-01-27T05:53:43.137Z,16.85
2023-01-27T05:56:14.011Z,16.63
2023-01-27T05:58:42.273Z,17.42
2023-01-27T06:01:12.015Z,18.45
2023-01-27T06:03:40.981Z,17.45
2023-01-27T06:06:09.993Z,13.82
2023-01-27T06:08:38.594Z,16.98
2023-01-27T06:11:07.575Z,16.55
2023-01-27T06:13:38.720Z,16.33
2023-01-27T06:16:08.757Z,15.90
2023-01-27T06:18:37.733Z,17.83
2023-01-27T06:21:08.222Z,17.77
2023-01-27T06:23:36.259Z,17.52
2023-01-27T06:26:09.429Z,17.90
2023-01-27T06:28:39.260Z,17.05
2023-01-27T06:31:08.535Z,17.88
2023-01-27T06:33:37.252Z,18.13
2023-01-27T06:36:07.285Z,17.35
2023-01-27T06:38:35.507Z,18.95
2023-01-27T06:41:03.639Z,18.88
2023-01-27T06:43:31.753Z,20.27
2023-01-27T06:46:03.026Z,19.15
2023-01-27T06:48:32.536Z,18.85
2023-01-27T06:51:00.676Z,18.95
2023-01-27T06:53:28.714Z,20.38
2023-01-27T06:55:57.540Z,19.50
2023-01-27T06:58:25.869Z,21.63
2023-01-27T07:00:54.119Z,22.15
2023-01-27T07:03:23.623Z,20.88
2023-01-27T07:08:19.556Z,18.45
2023-01-27T07:10:47.630Z,21.70
2023-01-27T07:13:16.114Z,20.25
2023-01-27T07:15:44.321Z,20.23
2023-01-27T07:18:14.362Z,18.63
2023-01-27T07:20:43.856Z,19.73
2023-01-27T07:23:13.112Z,18.35
2023-01-27T07:25:41.371Z,18.48
2023-01-27T07:28:10.276Z,17.95
2023-01-27T07:30:39.316Z,14.35
2023-01-27T07:33:08.554Z,19.00
2023-01-27T07:35:36.937Z,18.35
2023-01-27T07:38:06.914Z,18.88
2023-01-27T07:40:35.760Z,18.95
2023-01-27T07:43:04.286Z,24.30
2023-01-27T07:45:32.537Z,18.83
2023-01-27T07:48:04.581Z,23.83
2023-01-27T07:50:32.673Z,24.05
2023-01-27T07:53:01.997Z,18.58
2023-01-27T07:55:32.841Z,18.48
2023-01-27T07:58:01.233Z,18.13
2023-01-27T08:00:30.183Z,19.40
2023-01-27T08:02:59.690Z,14.85
2023-01-27T08:07:58.857Z,16.80
2023-01-27T08:10:27.577Z,17.80
2023-01-27T08:12:57.075Z,18.63
2023-01-27T08:17:56.726Z,17.48
2023-01-27T08:20:25.788Z,18.15
2023-01-27T08:22:53.835Z,18.00
2023-01-27T08:25:22.239Z,16.67
2023-01-27T08:27:53.650Z,17.50
2023-01-27T08:30:23.646Z,16.48
2023-01-27T08:32:51.710Z,18.27
2023-01-27T08:35:19.775Z,17.10
2023-01-27T08:37:48.884Z,16.13
2023-01-27T08:40:17.912Z,18.25
2023-01-27T08:42:45.997Z,13.90
2023-01-27T08:45:14.296Z,16.08
2023-01-27T08:47:43.907Z,16.50
2023-01-27T08:50:12.867Z,16.15
2023-01-27T08:52:41.191Z,15.75
2023-01-27T08:55:09.393Z,15.52
2023-01-27T08:57:37.456Z,14.60
2023-01-27T09:00:07.258Z,14.63
2023-01-27T09:02:35.429Z,15.43
2023-01-27T09:05:05.073Z,15.63
2023-01-27T09:07:33.207Z,18.10
2023-01-27T09:10:13.712Z,15.23
2023-01-27T09:12:43.935Z,17.92
2023-01-27T09:15:12.713Z,113.40
2023-01-27T09:17:40.966Z,30.38
2023-01-27T09:20:12.112Z,15.93
2023-01-27T09:22:41.230Z,16.63
2023-01-27T09:25:12.149Z,14.13
2023-01-27T09:27:40.394Z,13.35
2023-01-27T09:30:10.783Z,13.70
2023-01-27T09:32:39.060Z,14.13
2023-01-27T09:35:07.735Z,14.35
2023-01-27T09:37:41.504Z,13.75
2023-01-27T09:40:19.540Z,15.95
2023-01-27T09:43:25.625Z,14.55
2023-01-27T09:46:14.712Z,13.25
2023-01-27T09:48:54.396Z,12.80
2023-01-27T09:51:29.643Z,12.70
2023-01-27T09:54:16.041Z,14.75
2023-01-27T09:56:57.615Z,14.77
2023-01-27T09:59:40.451Z,12.75
2023-01-27T10:02:17.861Z,12.73
2023-01-27T10:05:03.140Z,12.18
2023-01-27T10:07:53.929Z,13.05
2023-01-27T10:10:40.613Z,12.15
2023-01-27T10:13:21.364Z,14.38
2023-01-27T10:16:01.196Z,13.13
2023-01-27T10:18:44.215Z,13.05
2023-01-27T10:21:22.514Z,12.45
2023-01-27T10:23:59.159Z,12.50
2023-01-27T10:26:32.779Z,13.35
2023-01-27T10:29:09.554Z,11.40
2023-01-27T10:31:42.419Z,12.00
2023-01-27T10:34:23.141Z,14.93
2023-01-27T10:36:57.001Z,12.40
2023-01-27T10:39:34.902Z,14.27
2023-01-27T10:42:11.184Z,14.43
2023-01-27T10:45:02.175Z,15.35
2023-01-27T10:47:40.437Z,14.95
2023-01-27T10:50:13.559Z,16.08
2023-01-27T10:52:46.825Z,16.70
2023-01-27T10:55:21.744Z,13.68
2023-01-27T10:57:57.660Z,13.40
2023-01-27T11:03:26.504Z,13.57
2023-01-27T11:05:57.355Z,14.00
2023-01-27T11:08:29.813Z,14.00
2023-01-27T11:11:19.209Z,13.32
2023-01-27T11:13:49.038Z,12.85
2023-01-27T11:16:18.886Z,13.85
2023-01-27T11:18:51.232Z,13.68
2023-01-27T11:21:21.962Z,12.05
2023-01-27T11:23:55.180Z,10.65
2023-01-27T11:26:31.365Z,9.70
2023-01-27T11:29:15.708Z,10.73
2023-01-27T11:31:53.907Z,9.65
2023-01-27T11:34:28.017Z,8.95
2023-01-27T11:36:56.080Z,11.18
2023-01-27T11:39:24.437Z,8.65
2023-01-27T11:41:55.632Z,9.20
2023-01-27T11:44:27.594Z,8.85
2023-01-27T11:46:57.706Z,9.98
2023-01-27T11:49:29.403Z,10.27
2023-01-27T11:52:05.571Z,9.80
2023-01-27T11:54:40.315Z,9.85
2023-01-27T11:57:18.110Z,8.57
2023-01-27T11:59:49.333Z,9.57
2023-01-27T12:02:27.375Z,9.95
2023-01-27T12:05:00.862Z,10.00
2023-01-27T12:07:42.910Z,8.90
2023-01-27T12:10:27.993Z,9.10
2023-01-27T12:12:56.852Z,10.07
2023-01-27T12:15:28.673Z,9.77
2023-01-27T12:17:59.863Z,9.48
2023-01-27T12:20:36.640Z,8.40
2023-01-27T12:23:15.058Z,9.43
2023-01-27T12:25:48.981Z,9.35
2023-01-27T12:28:26.004Z,9.02
2023-01-27T12:30:59.120Z,10.00
2023-01-27T12:33:32.161Z,9.50
2023-01-27T12:36:02.375Z,10.27
2023-01-27T12:38:35.326Z,9.93
2023-01-27T12:41:06.144Z,10.02
2023-01-27T12:43:52.078Z,10.57
2023-01-27T12:46:24.975Z,9.05
2023-01-27T12:48:55.090Z,8.77
2023-01-27T12:51:24.600Z,9.00
2023-01-27T12:54:12.870Z,8.73
2023-01-27T12:56:41.011Z,7.93
2023-01-27T12:59:15.082Z,9.00
2023-01-27T13:01:47.154Z,8.98
2023-01-27T13:04:18.662Z,10.25
2023-01-27T13:06:49.275Z,9.23
2023-01-27T13:09:27.755Z,9.65
2023-01-27T13:11:58.107Z,10.45
2023-01-27T13:14:30.393Z,9.65
2023-01-27T13:16:59.998Z,10.07
2023-01-27T13:22:03.986Z,10.75
2023-01-27T13:24:37.335Z,10.73
2023-01-27T13:27:11.921Z,9.32
2023-01-27T13:29:42.079Z,13.95
2023-01-27T13:32:19.159Z,10.65
2023-01-27T13:34:51.549Z,10.07
2023-01-27T13:37:23.683Z,9.73
2023-01-27T13:40:00.704Z,10.27
2023-01-27T13:42:34.529Z,11.48
2023-01-27T13:45:06.984Z,10.70
2023-01-27T13:47:47.221Z,12.02
2023-01-27T13:50:24.897Z,12.48
2023-01-27T13:52:55.663Z,13.30
2023-01-27T13:55:41.573Z,12.10
2023-01-27T13:58:16.088Z,10.82
2023-01-27T14:00:49.836Z,12.50
2023-01-27T14:03:54.269Z,12.38
2023-01-27T14:06:33.528Z,11.80
2023-01-27T14:09:14.553Z,13.20
2023-01-27T14:11:50.061Z,12.32
2023-01-27T14:14:56.128Z,13.85
2023-01-27T14:17:36.595Z,12.57
2023-01-27T14:20:38.412Z,12.70
2023-01-27T14:23:21.075Z,14.35
2023-01-27T14:26:00.775Z,13.70
2023-01-27T14:28:38.662Z,13.25
2023-01-27T14:31:12.826Z,11.73
2023-01-27T14:33:52.297Z,13.10
2023-01-27T14:36:25.601Z,12.90
2023-01-27T14:39:03.637Z,12.35
2023-01-27T14:41:44.590Z,14.65
2023-01-27T14:44:20.092Z,15.10
2023-01-27T14:47:02.343Z,13.48
2023-01-27T14:49:46.034Z,14.10
2023-01-27T14:52:26.003Z,15.15
2023-01-27T14:55:15.810Z,13.88
2023-01-27T14:57:49.144Z,16.13
2023-01-27T15:00:35.182Z,15.10
2023-01-27T15:03:27.928Z,15.10
2023-01-27T15:06:01.756Z,15.38
2023-01-27T15:08:41.869Z,14.18
2023-01-27T15:11:29.495Z,14.18
2023-01-27T15:14:30.978Z,14.88
2023-01-27T15:17:15.187Z,16.63
2023-01-27T15:20:06.636Z,15.48
2023-01-27T15:22:55.769Z,15.93
2023-01-27T15:25:33.423Z,16.88
2023-01-27T15:28:02.668Z,15.98
2023-01-27T15:30:34.479Z,16.30
2023-01-27T15:33:02.521Z,15.73
2023-01-27T15:35:36.851Z,15.80
2023-01-27T15:38:29.621Z,15.45
2023-01-27T15:41:07.059Z,15.40
2023-01-27T15:43:40.702Z,16.85
2023-01-27T15:46:29.954Z,16.17
2023-01-27T15:49:01.321Z,16.23
2023-01-27T15:51:32.048Z,15.63
2023-01-27T15:54:01.222Z,16.48
2023-01-27T15:56:55.652Z,16.38
2023-01-27T15:59:26.450Z,15.15
2023-01-27T16:02:13.973Z,16.48
2023-01-27T16:04:42.539Z,16.73
2023-01-27T16:07:23.554Z,17.27
2023-01-27T16:09:53.361Z,16.95
2023-01-27T16:12:37.482Z,17.55
2023-01-27T16:15:39.257Z,15.80
2023-01-27T16:18:26.092Z,16.30
2023-01-27T16:21:01.744Z,17.65
2023-01-27T16:23:41.564Z,17.52
2023-01-27T16:26:21.607Z,16.55
2023-01-27T16:28:54.125Z,15.50
2023-01-27T16:31:25.859Z,16.85
2023-01-27T16:33:58.996Z,16.63
2023-01-27T16:36:30.407Z,16.58
2023-01-27T16:39:04.690Z,15.18
2023-01-27T16:41:38.611Z,15.32
2023-01-27T16:44:17.828Z,17.00
2023-01-27T16:46:49.200Z,15.75
2023-01-27T16:49:23.041Z,14.38
2023-01-27T16:51:55.744Z,16.42
2023-01-27T16:54:26.350Z,17.65
2023-01-27T16:56:55.043Z,16.63
2023-01-27T16:59:27.706Z,17.55
2023-01-27T17:02:00.774Z,16.70
2023-01-27T17:04:31.698Z,15.85
2023-01-27T17:07:06.722Z,17.20
2023-01-27T17:09:41.623Z,17.70
2023-01-27T17:12:28.261Z,18.60
2023-01-27T17:14:58.929Z,17.25
2023-01-27T17:17:28.271Z,16.63
2023-01-27T17:20:02.577Z,17.45
2023-01-27T17:22:38.319Z,16.55
2023-01-27T17:25:12.453Z,16.58
2023-01-27T17:27:44.142Z,16.73
2023-01-27T17:30:22.663Z,16.88
2023-01-27T17:32:52.808Z,17.65
2023-01-27T17:35:23.768Z,16.63
2023-01-27T17:37:52.686Z,18.25
2023-01-27T17:40:22.755Z,18.23
2023-01-27T17:42:51.044Z,18.70
2023-01-27T17:45:28.157Z,18.80
2023-01-27T17:47:59.313Z,17.92
2023-01-27T17:50:33.381Z,18.40
2023-01-27T17:53:01.716Z,18.50
2023-01-27T17:55:31.876Z,19.60
2023-01-27T17:58:05.360Z,18.75
2023-01-27T18:00:37.984Z,20.45
2023-01-27T18:03:10.590Z,16.35
2023-01-27T18:05:39.304Z,17.92
2023-01-27T18:08:08.890Z,14.55
2023-01-27T18:10:44.052Z,16.80
2023-01-27T18:13:36.334Z,16.55
2023-01-27T18:16:15.709Z,16.55
2023-01-27T18:21:18.742Z,17.65
2023-01-27T18:23:48.307Z,16.55
2023-01-27T18:28:50.282Z,17.45
2023-01-27T18:31:23.330Z,18.60
2023-01-27T18:33:59.185Z,17.38
2023-01-27T18:36:33.275Z,18.45
2023-01-27T18:39:03.415Z,19.17
2023-01-27T18:41:37.661Z,19.10
2023-01-27T18:44:08.435Z,18.27
2023-01-27T18:46:37.836Z,17.95
2023-01-27T18:49:10.240Z,18.50
2023-01-27T18:51:38.386Z,17.08
2023-01-27T18:54:10.381Z,18.20
2023-01-27T18:56:38.439Z,18.00
2023-01-27T18:59:06.481Z,17.85
2023-01-27T19:01:36.127Z,19.23
2023-01-27T19:04:06.684Z,16.92
2023-01-27T19:06:34.714Z,17.23
2023-01-27T19:09:04.640Z,16.63
2023-01-27T19:11:32.952Z,17.85
2023-01-27T19:14:01.765Z,17.02
2023-01-27T19:16:33.437Z,16.92
2023-01-27T19:19:01.956Z,15.52
2023-01-27T19:21:31.367Z,17.95
2023-01-27T19:23:59.461Z,16.67
2023-01-27T19:26:28.232Z,16.73
2023-01-27T19:28:58.060Z,13.43
2023-01-27T19:31:26.499Z,19.27
2023-01-27T19:33:56.146Z,13.67
2023-01-27T19:36:28.370Z,22.27
2023-01-27T19:39:01.898Z,21.02
2023-01-27T19:41:30.029Z,28.45
2023-01-27T19:43:58.142Z,27.48
2023-01-27T19:46:26.366Z,29.73
2023-01-27T19:48:54.374Z,29.33
2023-01-27T19:51:22.411Z,28.20
2023-01-27T19:53:50.434Z,28.20
2023-01-27T19:56:21.767Z,25.45
2023-01-27T19:58:52.759Z,27.50
2023-01-27T20:01:21.599Z,27.75
2023-01-27T20:03:50.144Z,20.88
2023-01-27T20:06:21.102Z,24.90
2023-01-27T20:08:49.316Z,26.92
2023-01-27T20:11:31.957Z,29.73
2023-01-27T20:14:00.914Z,27.73
2023-01-27T20:16:29.297Z,28.52
2023-01-27T20:19:00.060Z,29.07
2023-01-27T20:21:31.242Z,29.80
2023-01-27T20:23:59.582Z,29.40
2023-01-27T20:26:29.649Z,28.42
2023-01-27T20:28:57.758Z,26.10
2023-01-27T20:31:25.840Z,28.40
2023-01-27T20:33:54.066Z,27.65
2023-01-27T20:36:23.746Z,28.35
2023-01-27T20:38:52.668Z,29.88
2023-01-27T20:41:21.961Z,27.45
2023-01-27T20:43:56.065Z,30.10
2023-01-27T20:46:24.176Z,28.02
2023-01-27T20:48:52.271Z,29.83
2023-01-27T20:51:20.579Z,29.65
2023-01-27T20:53:49.311Z,31.15
2023-01-27T20:56:19.160Z,30.60
2023-01-27T20:58:47.870Z,29.25
2023-01-27T21:01:19.277Z,30.80
2023-01-27T21:03:47.859Z,29.70
2023-01-27T21:06:17.784Z,24.23
2023-01-27T21:08:47.522Z,29.77
2023-01-27T21:11:17.667Z,30.13
2023-01-27T21:13:45.795Z,29.40
2023-01-27T21:16:13.989Z,30.15
2023-01-27T21:18:44.021Z,29.90
2023-01-27T21:21:22.729Z,29.13
2023-01-27T21:23:51.189Z,32.15
2023-01-27T21:26:19.238Z,30.80
2023-01-27T21:28:47.487Z,29.95
2023-01-27T21:31:18.583Z,28.88
2023-01-27T21:33:50.159Z,31.70
2023-01-27T21:36:18.958Z,31.10
2023-01-27T21:38:47.237Z,30.10
2023-01-27T21:41:37.565Z,28.90
2023-01-27T21:44:24.674Z,30.33
2023-01-27T21:46:52.726Z,31.80
2023-01-27T21:49:22.128Z,32.55
2023-01-27T21:51:50.312Z,32.63
2023-01-27T21:54:18.360Z,34.58
2023-01-27T21:56:46.364Z,34.40
2023-01-27T21:59:14.369Z,36.13
2023-01-27T22:01:42.441Z,35.20
2023-01-27T22:04:11.205Z,34.67
2023-01-27T22:06:40.592Z,38.70
2023-01-27T22:09:08.628Z,35.42
2023-01-27T22:11:37.109Z,34.53
2023-01-27T22:14:05.114Z,35.37
2023-01-27T22:16:33.199Z,35.67
2023-01-27T22:19:01.225Z,34.90
2023-01-27T22:21:29.251Z,35.05
2023-01-27T22:23:58.749Z,37.22
2023-01-27T22:28:54.767Z,33.15
2023-01-27T22:31:22.803Z,33.63
2023-01-27T22:33:50.838Z,33.30
2023-01-27T22:36:18.837Z,35.15
2023-01-27T22:38:46.973Z,34.28
2023-01-27T22:41:16.494Z,33.72
2023-01-27T22:43:44.566Z,32.63
2023-01-27T22:46:12.573Z,33.22
2023-01-27T22:48:40.551Z,32.35
2023-01-27T22:51:08.594Z,31.58
2023-01-27T22:53:36.656Z,29.85
2023-01-27T22:56:05.615Z,32.30
2023-01-27T22:58:35.542Z,33.47
2023-01-27T23:01:06.696Z,33.15
2023-01-27T23:03:35.005Z,34.53
2023-01-27T23:06:05.358Z,36.58
2023-01-27T23:08:33.445Z,35.25
2023-01-27T23:11:02.050Z,40.10
2023-01-27T23:13:31.322Z,34.60
2023-01-27T23:16:00.754Z,43.47
2023-01-27T23:21:02.376Z,42.25
2023-01-27T23:23:30.400Z,44.85
2023-01-27T23:25:58.461Z,41.63
2023-01-27T23:28:27.067Z,43.03
2023-01-27T23:30:55.104Z,41.80
2023-01-27T23:33:27.113Z,37.45
2023-01-27T23:35:57.519Z,36.08
2023-01-27T23:38:32.489Z,39.58
2023-01-27T23:41:04.968Z,38.58
2023-01-27T23:43:33.148Z,36.75
2023-01-27T23:46:01.888Z,37.00
2023-01-27T23:48:31.326Z,27.60
2023-01-27T23:53:27.080Z,34.92
2023-01-27T23:55:58.949Z,36.30
2023-01-27T23:58:27.458Z,35.10
